Zhengding, China
Current Conditions -  °F | °C
As of 4:00 AM on Sunday 21 Dec 2014 (Local Time) from ZBSJ Reporting Station
Clear Clear  
Wind Chill: 14°   Ceiling: Unl
Heat Index: 27°   Visibility: 6mi
Dew Point: -6°   Wind: 16mph
Humidity: 24%   Direction: 330°NNW
Pressure: 30.5"   Gusts: NA
Location:  38.14°N, 114.56°E
Report Text: ZBSJ 202000Z 33007MPS CAVOK M03/M21 Q1033 NOSIG
Loading
Personal Weather Stations






























Interactive Weather Map New forecast layout! Learn more

10-Day Weather Forecast

Advertisements
Track Severe Weather on mobile